Time;durP1;ratioP1;P1;durP2;ratioP2;P2;SDS_P1;SDS_P2;PMS_P1;PMS_P2;Temp;Humidity;BMP_temperature;BMP_pressure;BME280_temperature;BME280_humidity;BME280_pressure;Samples;Min_cycle;Max_cycle;Signal;HPM_P1;HPM_P2
2023/05/22 00:01:57;;;;;;;24.90;18.95;;;19.70;70.70;;;;;;4967502;28;20110;-83
2023/05/22 00:04:28;;;;;;;24.33;17.75;;;19.70;71.10;;;;;;4978136;28;20059;-83
2023/05/22 00:06:56;;;;;;;25.83;18.88;;;19.70;71.20;;;;;;4955421;28;20130;-83
2023/05/22 00:09:24;;;;;;;28.47;19.23;;;19.70;71.80;;;;;;4954882;28;20145;-83
2023/05/22 00:11:51;;;;;;;26.65;19.00;;;19.60;72.20;;;;;;4967081;28;20059;-82
2023/05/22 00:14:18;;;;;;;24.90;18.83;;;19.50;72.30;;;;;;4944171;28;20066;-83
2023/05/22 00:16:47;;;;;;;25.80;17.58;;;19.50;72.40;;;;;;4954664;28;20130;-83
2023/05/22 00:19:15;;;;;;;28.33;20.63;;;19.40;72.70;;;;;;4970838;28;20082;-82
2023/05/22 00:21:42;;;;;;;26.67;19.20;;;19.40;73.00;;;;;;4971066;28;20044;-82
2023/05/22 00:24:09;;;;;;;28.73;18.98;;;19.40;73.40;;;;;;4970569;28;20083;-82
2023/05/22 00:26:36;;;;;;;27.92;19.63;;;19.30;73.40;;;;;;4970295;28;20457;-82
2023/05/22 00:29:04;;;;;;;27.65;19.30;;;19.30;73.90;;;;;;4957094;28;20055;-82
2023/05/22 00:31:32;;;;;;;28.17;18.60;;;19.30;74.10;;;;;;4949637;28;20217;-82
2023/05/22 00:33:59;;;;;;;29.00;20.00;;;19.20;74.10;;;;;;4966294;28;20059;-82
2023/05/22 00:36:28;;;;;;;28.58;18.83;;;19.20;74.40;;;;;;4954325;28;20086;-82
2023/05/22 00:38:54;;;;;;;26.17;18.88;;;19.10;74.20;;;;;;4954119;28;20051;-81
2023/05/22 00:41:21;;;;;;;21.15;16.33;;;19.20;74.60;;;;;;4952806;28;20131;-81
2023/05/22 00:43:50;;;;;;;24.55;18.10;;;19.10;74.00;;;;;;4953294;28;20578;-82
2023/05/22 00:46:20;;;;;;;26.23;19.00;;;19.20;73.70;;;;;;4936815;28;20464;-82
2023/05/22 00:48:47;;;;;;;28.88;20.50;;;19.20;73.70;;;;;;4952965;28;20059;-82
2023/05/22 00:51:15;;;;;;;28.30;20.02;;;19.20;73.50;;;;;;4952579;28;20051;-82
2023/05/22 00:53:45;;;;;;;27.70;19.52;;;19.30;73.70;;;;;;4969116;28;20165;-82
2023/05/22 00:56:13;;;;;;;27.83;19.45;;;19.30;74.00;;;;;;4954367;28;20066;-82
2023/05/22 00:58:41;;;;;;;27.87;19.87;;;19.30;73.90;;;;;;4953931;28;20055;-82
2023/05/22 01:01:10;;;;;;;30.85;20.58;;;19.20;73.70;;;;;;4953859;28;20130;-82
2023/05/22 01:03:41;;;;;;;28.88;20.33;;;19.30;73.50;;;;;;4953370;28;20082;-82
2023/05/22 01:06:08;;;;;;;25.90;19.67;;;19.30;73.60;;;;;;4953879;28;20043;-82
2023/05/22 01:08:35;;;;;;;29.27;20.20;;;19.30;73.30;;;;;;4938180;28;20580;-82
2023/05/22 01:11:12;;;;;;;25.10;18.03;;;19.20;73.50;;;;;;4953398;28;20146;-82
2023/05/22 01:13:46;;;;;;;28.65;20.10;;;19.30;73.70;;;;;;4953484;28;20055;-82
2023/05/22 01:16:24;;;;;;;26.45;19.00;;;19.30;73.70;;;;;;4953705;28;20494;-82
2023/05/22 01:19:01;;;;;;;28.50;18.75;;;19.30;73.50;;;;;;4970017;28;20055;-82
2023/05/22 01:21:37;;;;;;;27.60;20.05;;;19.30;74.00;;;;;;4968550;28;20051;-82
2023/05/22 01:24:55;;;;;;;26.50;19.70;;;19.20;74.30;;;;;;4964883;28;20055;-82
2023/05/22 01:27:41;;;;;;;27.58;19.88;;;19.20;72.70;;;;;;4957002;28;20051;-82
2023/05/22 01:30:40;;;;;;;29.85;20.65;;;19.20;73.60;;;;;;4953668;28;20480;-82
2023/05/22 01:33:11;;;;;;;29.30;19.40;;;19.20;73.80;;;;;;4923501;28;20522;-82
2023/05/22 01:35:41;;;;;;;27.58;19.63;;;19.20;74.20;;;;;;4934829;28;20051;-82
2023/05/22 01:38:10;;;;;;;27.67;19.93;;;19.20;74.20;;;;;;4952278;28;20058;-82
2023/05/22 01:40:37;;;;;;;26.85;19.83;;;19.10;73.80;;;;;;4949127;28;20144;-82
2023/05/22 01:43:04;;;;;;;26.55;19.05;;;19.10;73.80;;;;;;4918301;28;20056;-82
2023/05/22 01:45:31;;;;;;;27.35;19.63;;;19.10;73.60;;;;;;4935311;28;20138;-82
2023/05/22 01:47:58;;;;;;;30.52;21.65;;;19.10;73.30;;;;;;4950276;28;20130;-82
2023/05/22 01:50:27;;;;;;;27.13;19.20;;;19.10;74.10;;;;;;4946968;28;20343;-81
2023/05/22 01:53:00;;;;;;;27.80;20.10;;;19.10;73.90;;;;;;4949789;28;20595;-82
2023/05/22 01:55:34;;;;;;;31.70;20.50;;;19.10;73.60;;;;;;4949967;28;20059;-82
2023/05/22 01:58:08;;;;;;;29.10;21.52;;;19.10;73.90;;;;;;4952850;28;20058;-82
2023/05/22 02:00:38;;;;;;;27.65;20.90;;;19.10;74.40;;;;;;4953316;28;20055;-82
2023/05/22 02:03:12;;;;;;;26.73;19.73;;;19.00;74.70;;;;;;4969212;28;20420;-82
2023/05/22 02:05:41;;;;;;;31.80;21.75;;;19.00;74.40;;;;;;4953164;28;20075;-82
2023/05/22 02:08:11;;;;;;;29.88;21.20;;;18.90;74.40;;;;;;4952961;28;20580;-82
2023/05/22 02:10:43;;;;;;;27.75;19.88;;;18.90;74.40;;;;;;4968920;28;20051;-82
2023/05/22 02:13:10;;;;;;;29.13;21.00;;;18.90;74.70;;;;;;4965661;28;20047;-82
2023/05/22 02:15:38;;;;;;;29.50;19.93;;;18.90;74.70;;;;;;4968411;28;20061;-82
2023/05/22 02:18:11;;;;;;;31.63;19.55;;;18.90;74.20;;;;;;4953198;28;20081;-82
2023/05/22 02:20:41;;;;;;;28.23;20.35;;;18.90;74.10;;;;;;4952947;28;20678;-82
2023/05/22 02:23:09;;;;;;;27.63;20.20;;;18.90;74.40;;;;;;4939348;28;20051;-82
2023/05/22 02:25:36;;;;;;;31.27;21.27;;;18.90;74.70;;;;;;4964431;28;20055;-82
2023/05/22 02:28:03;;;;;;;28.07;20.63;;;18.90;74.30;;;;;;4953240;28;20058;-82
2023/05/22 02:30:30;;;;;;;29.13;20.98;;;18.90;74.10;;;;;;4953237;28;20043;-82
2023/05/22 02:32:59;;;;;;;27.02;20.35;;;18.80;73.80;;;;;;4948622;28;20056;-81
2023/05/22 02:35:26;;;;;;;27.42;19.67;;;18.80;73.70;;;;;;4930380;28;20051;-82
2023/05/22 02:37:54;;;;;;;28.90;21.58;;;18.80;73.40;;;;;;4953220;28;20137;-82
2023/05/22 02:40:21;;;;;;;28.10;19.40;;;18.80;73.50;;;;;;4960130;28;20118;-82
2023/05/22 02:42:48;;;;;;;27.20;19.42;;;18.80;73.30;;;;;;4952535;28;20067;-82
2023/05/22 02:45:17;;;;;;;28.45;21.08;;;18.80;73.20;;;;;;4952503;28;20090;-82
2023/05/22 02:47:45;;;;;;;27.48;20.33;;;18.80;73.40;;;;;;4936449;28;20059;-82
2023/05/22 02:50:13;;;;;;;27.80;19.65;;;18.80;73.90;;;;;;4968099;28;20108;-82
2023/05/22 02:52:40;;;;;;;27.17;20.70;;;18.80;74.70;;;;;;4952025;28;20061;-82
2023/05/22 02:55:09;;;;;;;27.13;20.10;;;18.80;74.70;;;;;;4952206;28;21005;-82
2023/05/22 02:57:36;;;;;;;27.70;19.27;;;18.70;74.40;;;;;;4968094;28;20060;-82
2023/05/22 03:00:04;;;;;;;26.60;19.65;;;18.70;74.80;;;;;;4952433;28;20142;-82
2023/05/22 03:02:32;;;;;;;28.70;20.00;;;18.70;74.70;;;;;;4935845;28;20055;-82
2023/05/22 03:04:59;;;;;;;25.80;19.30;;;18.70;74.50;;;;;;4952138;28;20057;-82
2023/05/22 03:07:28;;;;;;;27.80;20.30;;;18.70;74.10;;;;;;4957827;28;20055;-81
2023/05/22 03:09:55;;;;;;;26.08;19.35;;;18.70;73.90;;;;;;4969148;28;20094;-81
2023/05/22 03:12:23;;;;;;;25.70;19.00;;;18.70;73.70;;;;;;4951737;28;20126;-82
2023/05/22 03:14:51;;;;;;;28.08;19.88;;;18.60;73.60;;;;;;4951911;28;20284;-82
2023/05/22 03:17:17;;;;;;;27.53;19.77;;;18.60;73.90;;;;;;4952176;28;20051;-82
2023/05/22 03:19:46;;;;;;;28.60;19.92;;;18.60;74.70;;;;;;4967509;28;20121;-81
2023/05/22 03:22:12;;;;;;;27.42;20.25;;;18.60;74.70;;;;;;4951800;28;20600;-82
2023/05/22 03:24:40;;;;;;;28.48;21.13;;;18.60;74.30;;;;;;4966315;28;20058;-82
2023/05/22 03:27:10;;;;;;;28.33;21.00;;;18.60;75.10;;;;;;4951926;28;20063;-81
2023/05/22 03:29:42;;;;;;;27.83;20.53;;;18.60;75.00;;;;;;4967637;28;20106;-81
2023/05/22 03:32:09;;;;;;;32.38;21.08;;;18.60;74.50;;;;;;4951431;28;20058;-81
2023/05/22 03:34:36;;;;;;;28.13;19.73;;;18.50;74.70;;;;;;4948067;28;20153;-82
2023/05/22 03:37:05;;;;;;;29.27;20.58;;;18.60;74.90;;;;;;4948548;28;20143;-82
2023/05/22 03:39:31;;;;;;;29.63;20.40;;;18.50;75.40;;;;;;4948633;28;20192;-82
2023/05/22 03:42:05;;;;;;;28.27;20.63;;;18.50;75.10;;;;;;4954131;28;20569;-82
2023/05/22 03:44:33;;;;;;;30.10;20.85;;;18.50;75.10;;;;;;4936035;28;20082;-82
2023/05/22 03:47:02;;;;;;;28.38;20.88;;;18.50;75.20;;;;;;4951894;28;20082;-82
2023/05/22 03:49:32;;;;;;;28.05;19.88;;;18.50;74.80;;;;;;4951157;28;20055;-82
2023/05/22 03:51:59;;;;;;;30.05;20.75;;;18.50;74.60;;;;;;4951486;28;20054;-82
2023/05/22 03:54:30;;;;;;;25.07;19.00;;;18.50;75.70;;;;;;4951394;28;20524;-82
2023/05/22 03:56:57;;;;;;;25.50;18.48;;;18.50;75.80;;;;;;4951697;28;20071;-82
2023/05/22 03:59:24;;;;;;;29.58;20.65;;;18.50;74.80;;;;;;4935710;28;20049;-82
2023/05/22 04:01:51;;;;;;;28.10;19.33;;;18.50;74.80;;;;;;4971877;28;20051;-82
2023/05/22 04:04:19;;;;;;;27.05;20.08;;;18.50;74.60;;;;;;4955104;28;20490;-82
2023/05/22 04:06:50;;;;;;;29.83;20.00;;;18.50;74.60;;;;;;4954656;28;20536;-82
2023/05/22 04:09:17;;;;;;;27.90;20.30;;;18.50;74.70;;;;;;4954826;28;20162;-82
2023/05/22 04:11:45;;;;;;;27.55;19.45;;;18.40;74.50;;;;;;4970642;28;20138;-81
2023/05/22 04:14:12;;;;;;;27.83;19.25;;;18.50;74.60;;;;;;4954794;28;20137;-82
2023/05/22 04:16:39;;;;;;;27.90;20.23;;;18.50;75.40;;;;;;4969856;28;20114;-82
2023/05/22 04:19:08;;;;;;;27.30;20.10;;;18.50;75.30;;;;;;4954795;28;20636;-82
2023/05/22 04:21:37;;;;;;;25.30;19.13;;;18.40;74.80;;;;;;4951243;28;20051;-82
2023/05/22 04:24:05;;;;;;;27.50;20.38;;;18.40;75.50;;;;;;4937758;28;20549;-82
2023/05/22 04:26:32;;;;;;;29.00;20.77;;;18.40;76.00;;;;;;4954669;28;20536;-82
2023/05/22 04:29:00;;;;;;;29.92;20.80;;;18.40;75.50;;;;;;4954217;28;20055;-82
2023/05/22 04:31:28;;;;;;;25.23;18.07;;;18.40;75.30;;;;;;4938791;28;20086;-82
2023/05/22 04:33:55;;;;;;;28.08;20.13;;;18.40;74.70;;;;;;4938326;28;20479;-82
2023/05/22 04:36:25;;;;;;;29.10;20.70;;;18.40;75.60;;;;;;4969455;28;20066;-82
2023/05/22 04:38:54;;;;;;;24.83;19.58;;;18.40;76.00;;;;;;4954312;28;20051;-82
2023/05/22 04:41:25;;;;;;;24.27;18.73;;;18.40;75.80;;;;;;4969976;28;20220;-82
2023/05/22 04:43:53;;;;;;;27.27;20.33;;;18.40;75.20;;;;;;4967480;28;20056;-82
2023/05/22 04:46:20;;;;;;;28.92;19.48;;;18.40;75.10;;;;;;4970266;28;20055;-82
2023/05/22 04:48:48;;;;;;;27.30;19.98;;;18.40;75.30;;;;;;4938404;28;20055;-82
2023/05/22 04:51:16;;;;;;;26.40;18.88;;;18.40;76.40;;;;;;4937930;28;20079;-82
2023/05/22 04:53:43;;;;;;;27.90;19.67;;;18.40;76.80;;;;;;4950003;28;20137;-82
2023/05/22 04:56:12;;;;;;;27.10;20.20;;;18.30;75.50;;;;;;4938026;28;20059;-82
2023/05/22 04:58:39;;;;;;;28.40;18.90;;;18.30;75.90;;;;;;4953930;28;20622;-82
2023/05/22 05:01:06;;;;;;;27.65;19.85;;;18.30;75.70;;;;;;4950176;28;20056;-82
2023/05/22 05:03:35;;;;;;;27.42;20.00;;;18.30;75.80;;;;;;4934642;28;20202;-82
2023/05/22 05:06:02;;;;;;;29.02;20.48;;;18.40;76.00;;;;;;4948528;28;20059;-82
2023/05/22 05:08:29;;;;;;;25.27;18.80;;;18.40;75.80;;;;;;4937632;28;20062;-81
2023/05/22 05:10:56;;;;;;;27.40;19.50;;;18.30;75.50;;;;;;4935931;28;20542;-82
2023/05/22 05:13:25;;;;;;;25.23;18.73;;;18.40;75.90;;;;;;4953348;28;20612;-82
2023/05/22 05:15:52;;;;;;;25.30;18.48;;;18.40;76.10;;;;;;4947682;28;20704;-82
2023/05/22 05:18:19;;;;;;;26.98;19.55;;;18.40;75.60;;;;;;4942864;28;20111;-82
2023/05/22 05:20:46;;;;;;;25.10;19.27;;;18.40;76.00;;;;;;4954265;28;20075;-81
2023/05/22 05:23:14;;;;;;;25.33;19.00;;;18.40;75.60;;;;;;4953095;28;20059;-82
2023/05/22 05:25:41;;;;;;;23.55;17.67;;;18.30;76.40;;;;;;4946084;28;20705;-82
2023/05/22 05:28:10;;;;;;;25.00;17.60;;;18.30;76.10;;;;;;4943130;28;20573;-82
2023/05/22 05:30:40;;;;;;;24.90;18.48;;;18.30;75.90;;;;;;4958968;28;20057;-82
2023/05/22 05:33:33;;;;;;;26.13;18.47;;;18.30;76.20;;;;;;4957335;28;20051;-82
2023/05/22 05:36:15;;;;;;;24.73;18.20;;;18.30;75.90;;;;;;4952694;28;20043;-82
2023/05/22 05:38:42;;;;;;;22.42;16.35;;;18.30;76.40;;;;;;4958285;28;20170;-81
2023/05/22 05:41:09;;;;;;;24.45;17.35;;;18.30;76.10;;;;;;4935802;28;20055;-81
2023/05/22 05:43:37;;;;;;;26.83;18.85;;;18.30;76.20;;;;;;4951523;28;20043;-81
2023/05/22 05:46:09;;;;;;;25.17;17.77;;;18.30;76.00;;;;;;4932183;28;20059;-81
2023/05/22 05:48:36;;;;;;;23.90;18.13;;;18.30;76.50;;;;;;4867199;28;67742;-81
2023/05/22 05:51:03;;;;;;;26.40;18.52;;;18.30;76.60;;;;;;4909234;28;21021;-81
2023/05/22 05:53:39;;;;;;;23.85;17.70;;;18.30;76.90;;;;;;4935393;28;20109;-81
2023/05/22 05:56:08;;;;;;;24.38;18.15;;;18.30;76.50;;;;;;4948847;28;20901;-81
2023/05/22 05:58:36;;;;;;;25.30;17.50;;;18.30;76.90;;;;;;4948728;28;20062;-82
2023/05/22 06:01:27;;;;;;;24.17;18.17;;;18.30;76.50;;;;;;4951346;28;20070;-81
2023/05/22 06:03:54;;;;;;;27.48;19.00;;;18.30;77.20;;;;;;4954731;28;20065;-82
2023/05/22 06:06:28;;;;;;;29.08;19.25;;;18.30;77.20;;;;;;4946824;28;20047;-81
2023/05/22 06:09:18;;;;;;;25.70;18.95;;;18.30;77.00;;;;;;4951722;28;20067;-82
2023/05/22 06:12:11;;;;;;;26.63;19.70;;;18.30;77.20;;;;;;4951948;28;20058;-81
2023/05/22 06:14:39;;;;;;;25.63;18.83;;;18.30;77.50;;;;;;4952712;28;20050;-81
2023/05/22 06:17:08;;;;;;;26.20;19.50;;;18.30;77.40;;;;;;4951751;28;20087;-82
2023/05/22 06:19:36;;;;;;;26.25;18.88;;;18.30;77.60;;;;;;4936282;28;20138;-81
2023/05/22 06:22:03;;;;;;;26.67;19.05;;;18.30;77.50;;;;;;4935244;28;20094;-82
2023/05/22 06:24:32;;;;;;;25.77;19.00;;;18.30;77.70;;;;;;4943367;28;20053;-81
2023/05/22 06:27:04;;;;;;;24.00;17.77;;;18.30;78.00;;;;;;4944058;28;20055;-82
2023/05/22 06:29:31;;;;;;;24.10;18.40;;;18.30;77.80;;;;;;4942000;28;20061;-81
2023/05/22 06:31:59;;;;;;;23.88;18.08;;;18.30;77.20;;;;;;4950011;28;20676;-81
2023/05/22 06:34:28;;;;;;;25.25;17.83;;;18.30;76.90;;;;;;4933252;28;20142;-81
2023/05/22 06:36:58;;;;;;;27.60;18.87;;;18.30;76.80;;;;;;4951709;28;20055;-82
2023/05/22 06:39:29;;;;;;;25.92;17.63;;;18.40;77.10;;;;;;4947557;28;20055;-81
2023/05/22 06:42:07;;;;;;;23.95;16.88;;;18.40;76.70;;;;;;4943011;28;20067;-82
2023/05/22 06:45:01;;;;;;;24.15;17.63;;;18.40;76.20;;;;;;4949896;28;20063;-82
2023/05/22 06:47:36;;;;;;;26.50;18.08;;;18.40;76.20;;;;;;4956457;28;20557;-83
2023/05/22 06:50:06;;;;;;;22.40;16.87;;;18.40;76.50;;;;;;4935310;28;20150;-82
2023/05/22 06:52:34;;;;;;;19.17;13.32;;;18.50;76.90;;;;;;4935639;28;20047;-87
2023/05/22 06:55:04;;;;;;;22.13;15.10;;;18.40;77.10;;;;;;4952099;28;20059;-87
2023/05/22 06:57:32;;;;;;;12.65;9.35;;;18.50;76.80;;;;;;4942168;28;20593;-87
2023/05/22 07:00:03;;;;;;;24.63;15.05;;;18.50;76.50;;;;;;4951590;28;20047;-85
2023/05/22 07:02:55;;;;;;;16.23;11.90;;;18.50;76.20;;;;;;4934546;28;20058;-83
2023/05/22 07:05:29;;;;;;;21.38;14.57;;;18.50;75.90;;;;;;4945339;28;20051;-83
2023/05/22 07:08:01;;;;;;;15.15;10.85;;;18.50;75.90;;;;;;4950327;28;20131;-82
2023/05/22 07:10:28;;;;;;;20.00;14.10;;;18.50;75.90;;;;;;4949773;28;20086;-82
2023/05/22 07:12:56;;;;;;;18.65;12.70;;;18.50;76.10;;;;;;4950961;28;20047;-86
2023/05/22 07:15:23;;;;;;;18.67;14.37;;;18.60;76.30;;;;;;4945528;28;20139;-85
2023/05/22 07:17:54;;;;;;;17.80;13.25;;;18.50;76.20;;;;;;4947681;28;20864;-85
2023/05/22 07:20:24;;;;;;;18.95;13.88;;;18.50;76.20;;;;;;4964482;28;20492;-86
2023/05/22 07:23:02;;;;;;;17.85;12.90;;;18.60;75.90;;;;;;4962545;28;20055;-84
2023/05/22 07:25:30;;;;;;;16.10;11.95;;;18.60;75.70;;;;;;4965089;28;20098;-84
2023/05/22 07:27:58;;;;;;;16.30;11.83;;;18.60;75.90;;;;;;4922884;28;20066;-83
2023/05/22 07:30:26;;;;;;;19.30;13.35;;;18.60;76.00;;;;;;4946361;28;20063;-84
2023/05/22 07:32:53;;;;;;;15.38;11.27;;;18.60;76.10;;;;;;4951309;28;20044;-84
2023/05/22 07:35:20;;;;;;;16.13;12.10;;;18.60;76.10;;;;;;4948275;28;20111;-83
2023/05/22 07:37:48;;;;;;;18.63;12.75;;;18.60;75.80;;;;;;4933821;28;20055;-84
2023/05/22 07:40:17;;;;;;;17.70;12.60;;;18.60;75.80;;;;;;4971046;28;20557;-81
2023/05/22 07:42:44;;;;;;;13.95;10.23;;;18.70;75.80;;;;;;4937589;28;20198;-88
2023/05/22 07:45:13;;;;;;;17.77;11.75;;;18.70;75.60;;;;;;4951247;28;20055;-83
2023/05/22 07:47:40;;;;;;;14.25;10.13;;;18.70;75.40;;;;;;4983940;28;21054;-84
2023/05/22 07:50:09;;;;;;;17.30;12.55;;;18.70;75.40;;;;;;4951863;28;20062;-87
2023/05/22 07:52:39;;;;;;;16.43;11.80;;;18.70;75.30;;;;;;4954080;28;20054;-86
2023/05/22 07:55:08;;;;;;;19.00;11.30;;;18.70;75.30;;;;;;4948486;28;20142;-83
2023/05/22 07:57:40;;;;;;;15.63;10.65;;;18.70;75.10;;;;;;4949084;28;20150;-84
2023/05/22 08:00:17;;;;;;;16.48;11.00;;;18.70;75.20;;;;;;4952852;28;20059;-85
2023/05/22 08:02:45;;;;;;;17.52;11.85;;;18.70;75.20;;;;;;4966584;28;20135;-85
2023/05/22 08:05:12;;;;;;;16.43;10.77;;;18.70;75.20;;;;;;4951318;28;20138;-85
2023/05/22 08:07:39;;;;;;;15.75;10.05;;;18.70;75.20;;;;;;4936903;28;20055;-85
2023/05/22 08:10:13;;;;;;;14.50;10.35;;;18.70;75.20;;;;;;4951493;28;20066;-83
2023/05/22 08:12:41;;;;;;;17.38;10.73;;;18.70;75.20;;;;;;4956980;28;20054;-86
2023/05/22 08:15:09;;;;;;;15.07;11.27;;;18.70;75.00;;;;;;4951665;28;20114;-85
2023/05/22 08:17:36;;;;;;;15.73;9.93;;;18.70;75.00;;;;;;4969757;28;20051;-85
2023/05/22 08:20:05;;;;;;;15.60;10.93;;;18.70;74.90;;;;;;4949046;28;20170;-85
2023/05/22 08:22:32;;;;;;;16.15;10.07;;;18.70;74.70;;;;;;4967989;28;20139;-85
2023/05/22 08:25:01;;;;;;;15.57;10.05;;;18.70;74.70;;;;;;4953921;28;20078;-86
2023/05/22 08:27:28;;;;;;;15.95;9.90;;;18.70;74.90;;;;;;4954372;28;20134;-86
2023/05/22 08:29:56;;;;;;;12.20;9.23;;;18.60;74.80;;;;;;4954063;28;20960;-87
2023/05/22 08:32:23;;;;;;;16.50;10.00;;;18.60;74.80;;;;;;4953672;28;20461;-87
2023/05/22 08:34:50;;;;;;;14.07;9.75;;;18.70;74.80;;;;;;4953952;28;20065;-85
2023/05/22 08:37:17;;;;;;;14.80;9.50;;;18.70;74.70;;;;;;4945874;28;20531;-86
2023/05/22 08:39:45;;;;;;;13.50;9.05;;;18.70;74.70;;;;;;4950550;28;20726;-85
2023/05/22 08:42:12;;;;;;;14.60;8.87;;;18.70;74.60;;;;;;4954353;28;20059;-86
2023/05/22 08:44:39;;;;;;;14.73;8.95;;;18.70;74.60;;;;;;4959285;28;20142;-86
2023/05/22 08:47:10;;;;;;;14.95;9.30;;;18.70;74.50;;;;;;4953363;28;20604;-87
2023/05/22 08:49:39;;;;;;;15.23;8.75;;;18.70;74.60;;;;;;4954209;28;20094;-87
2023/05/22 08:52:10;;;;;;;16.40;8.38;;;18.70;74.60;;;;;;4954701;28;20154;-86
2023/05/22 08:54:42;;;;;;;13.40;7.97;;;18.70;74.50;;;;;;4953693;28;20618;-86
2023/05/22 08:57:09;;;;;;;13.38;8.43;;;18.70;74.50;;;;;;4940023;28;20134;-85
2023/05/22 08:59:38;;;;;;;15.32;8.27;;;18.70;74.50;;;;;;4952308;28;20119;-86
2023/05/22 09:02:06;;;;;;;13.18;8.10;;;18.70;74.10;;;;;;4950801;28;20055;-85
2023/05/22 09:04:35;;;;;;;13.20;8.10;;;18.70;74.20;;;;;;4948421;28;20521;-85
2023/05/22 09:07:04;;;;;;;11.33;7.40;;;18.80;74.10;;;;;;4931117;28;20506;-85
2023/05/22 09:09:32;;;;;;;16.75;8.80;;;18.70;74.00;;;;;;4967038;28;20051;-85
2023/05/22 09:12:00;;;;;;;17.52;8.80;;;18.80;74.00;;;;;;4953647;28;20055;-84
2023/05/22 09:14:27;;;;;;;17.10;8.85;;;18.80;74.10;;;;;;4952751;28;20055;-85
2023/05/22 09:16:54;;;;;;;15.30;8.25;;;18.80;74.00;;;;;;4952622;28;20142;-85
2023/05/22 09:19:21;;;;;;;15.20;8.43;;;18.80;74.00;;;;;;4963516;28;20055;-84
2023/05/22 09:21:50;;;;;;;15.27;8.68;;;18.90;74.00;;;;;;4950750;28;20055;-85
2023/05/22 09:24:17;;;;;;;17.33;8.32;;;18.90;74.20;;;;;;4968803;28;20051;-84
2023/05/22 09:26:45;;;;;;;14.25;8.40;;;18.90;74.30;;;;;;4953138;28;20066;-85
2023/05/22 09:29:12;;;;;;;17.58;9.32;;;19.00;74.60;;;;;;4968990;28;20118;-84
2023/05/22 09:31:41;;;;;;;15.43;8.70;;;19.00;74.60;;;;;;4952468;28;20063;-84
2023/05/22 09:34:09;;;;;;;18.98;8.52;;;19.00;74.80;;;;;;4953011;28;20059;-85
2023/05/22 09:36:36;;;;;;;15.10;8.23;;;19.10;75.00;;;;;;4951540;28;20047;-88
2023/05/22 09:39:05;;;;;;;18.65;9.32;;;19.10;75.00;;;;;;4951000;28;20501;-87
2023/05/22 09:41:35;;;;;;;17.35;8.50;;;19.20;75.00;;;;;;4931939;28;20052;-88
2023/05/22 09:44:06;;;;;;;14.80;7.93;;;19.20;75.40;;;;;;4954736;28;20047;-88
2023/05/22 09:46:40;;;;;;;16.00;8.27;;;19.30;75.10;;;;;;4943093;28;20055;-88
2023/05/22 09:49:08;;;;;;;14.98;8.60;;;19.30;75.00;;;;;;4944158;28;20056;-87
2023/05/22 09:51:39;;;;;;;19.17;9.27;;;19.40;75.10;;;;;;4945711;28;20146;-87
2023/05/22 09:54:09;;;;;;;15.40;9.35;;;19.40;75.10;;;;;;4949196;28;20047;-86
2023/05/22 09:56:38;;;;;;;18.00;8.80;;;19.50;75.30;;;;;;4951546;28;20058;-87
2023/05/22 09:59:08;;;;;;;15.35;9.10;;;19.50;75.20;;;;;;4952058;28;20570;-86
2023/05/22 10:01:36;;;;;;;16.55;8.73;;;19.60;75.20;;;;;;4950868;28;20549;-87
2023/05/22 10:04:04;;;;;;;14.73;9.10;;;19.70;75.10;;;;;;4949171;28;20062;-85
2023/05/22 10:06:33;;;;;;;16.67;7.95;;;19.70;75.10;;;;;;4956152;28;20047;-86
2023/05/22 10:09:03;;;;;;;15.33;8.40;;;19.80;75.10;;;;;;4967023;28;20497;-83
2023/05/22 10:11:33;;;;;;;18.20;10.10;;;19.90;74.80;;;;;;4946898;28;20047;-83
2023/05/22 10:14:03;;;;;;;18.55;10.15;;;19.90;74.90;;;;;;4964881;28;20055;-84
2023/05/22 10:16:32;;;;;;;18.08;10.82;;;20.00;75.20;;;;;;4966870;28;20057;-83
2023/05/22 10:19:00;;;;;;;19.08;11.10;;;20.10;75.30;;;;;;4965305;28;20394;-82
2023/05/22 10:21:30;;;;;;;17.43;10.90;;;20.10;75.40;;;;;;4946824;28;20543;-83
2023/05/22 10:23:59;;;;;;;13.95;9.52;;;20.20;75.40;;;;;;4947426;28;20051;-86
2023/05/22 10:26:27;;;;;;;47.95;12.52;;;20.30;75.40;;;;;;4934609;28;20185;-86
2023/05/22 10:29:03;;;;;;;25.27;10.85;;;20.40;75.40;;;;;;4951374;28;21040;-86
2023/05/22 10:31:41;;;;;;;16.13;9.45;;;20.50;75.50;;;;;;4966054;28;20059;-86
2023/05/22 10:34:26;;;;;;;15.90;9.77;;;20.50;75.10;;;;;;4951877;28;20066;-86
2023/05/22 10:37:05;;;;;;;29.70;10.75;;;20.60;75.20;;;;;;4965779;28;20134;-85
2023/05/22 10:39:40;;;;;;;18.33;10.00;;;20.70;75.30;;;;;;4966146;28;20055;-85
2023/05/22 10:42:13;;;;;;;18.35;9.90;;;20.80;74.80;;;;;;4955874;28;20051;-86
2023/05/22 10:44:42;;;;;;;19.77;10.98;;;20.90;74.80;;;;;;4950609;28;20059;-86
2023/05/22 10:47:11;;;;;;;17.00;10.63;;;20.90;74.70;;;;;;4950278;28;20142;-85
2023/05/22 10:49:40;;;;;;;16.92;10.05;;;21.00;74.60;;;;;;4947478;28;20060;-85
2023/05/22 10:52:08;;;;;;;17.67;9.63;;;21.10;74.30;;;;;;4944249;28;20062;-85
2023/05/22 10:54:41;;;;;;;17.50;10.30;;;21.10;74.30;;;;;;4935719;28;20062;-86
2023/05/22 10:57:14;;;;;;;17.35;10.07;;;21.20;74.30;;;;;;4967089;28;20082;-84
2023/05/22 10:59:43;;;;;;;17.57;10.00;;;21.30;74.10;;;;;;4935005;28;20114;-88
2023/05/22 11:02:20;;;;;;;19.67;10.93;;;21.40;74.10;;;;;;4922633;28;20130;-86
2023/05/22 11:04:47;;;;;;;16.02;10.30;;;21.50;74.00;;;;;;4961339;28;20047;-87
2023/05/22 11:07:15;;;;;;;19.63;10.63;;;21.50;73.90;;;;;;4950158;28;20083;-87
2023/05/22 11:09:44;;;;;;;15.70;11.05;;;21.70;73.70;;;;;;4964515;28;20069;-87
2023/05/22 11:12:17;;;;;;;17.13;10.73;;;21.70;73.70;;;;;;4955424;28;20078;-86
2023/05/22 11:14:53;;;;;;;17.52;9.75;;;21.90;73.40;;;;;;4948748;28;20079;-84
2023/05/22 11:17:22;;;;;;;15.63;10.57;;;21.90;72.80;;;;;;4950698;28;20055;-87
2023/05/22 11:20:00;;;;;;;16.30;10.52;;;22.00;72.50;;;;;;4952794;28;20138;-87
2023/05/22 11:22:35;;;;;;;16.17;10.25;;;22.00;72.30;;;;;;4970415;28;20119;-87
2023/05/22 11:25:11;;;;;;;13.23;9.90;;;22.10;72.40;;;;;;4949648;28;20132;-86
2023/05/22 11:27:41;;;;;;;15.63;10.70;;;22.20;72.00;;;;;;4944012;28;20481;-87
2023/05/22 11:30:11;;;;;;;16.90;10.43;;;22.30;72.00;;;;;;4954686;28;20134;-85
2023/05/22 11:32:43;;;;;;;14.77;10.30;;;22.50;72.10;;;;;;4946887;28;20134;-86
2023/05/22 11:35:14;;;;;;;16.45;10.63;;;22.50;71.70;;;;;;4952182;28;20052;-88
2023/05/22 11:37:41;;;;;;;17.23;10.37;;;22.60;71.40;;;;;;4936323;28;20110;-86
2023/05/22 11:40:09;;;;;;;14.60;10.75;;;22.70;71.40;;;;;;4935480;28;20065;-82
2023/05/22 11:42:37;;;;;;;17.63;10.40;;;22.80;71.20;;;;;;4946766;28;20065;-84
2023/05/22 11:45:05;;;;;;;15.73;10.30;;;22.90;70.90;;;;;;4943232;28;20052;-87
2023/05/22 11:47:34;;;;;;;14.45;9.90;;;22.90;70.30;;;;;;4932019;28;20055;-80
2023/05/22 11:50:01;;;;;;;14.20;9.73;;;23.00;69.80;;;;;;4947578;28;20075;-81
2023/05/22 11:52:31;;;;;;;15.15;9.35;;;23.10;69.50;;;;;;4966916;28;20048;-81
2023/05/22 11:54:59;;;;;;;14.50;9.88;;;23.20;69.20;;;;;;4966755;28;20055;-79
2023/05/22 11:57:27;;;;;;;13.52;9.82;;;23.20;68.70;;;;;;4966722;28;20142;-82
2023/05/22 11:59:54;;;;;;;13.02;9.13;;;23.30;68.60;;;;;;4960280;28;20083;-82
2023/05/22 12:02:21;;;;;;;13.27;8.97;;;23.40;68.40;;;;;;4934997;28;20514;-81
2023/05/22 12:04:54;;;;;;;14.48;9.35;;;23.50;68.20;;;;;;4959937;28;20047;-84
2023/05/22 12:07:22;;;;;;;13.43;9.88;;;23.60;67.60;;;;;;4950480;28;20106;-83
2023/05/22 12:09:49;;;;;;;12.75;9.65;;;23.60;67.60;;;;;;4965985;28;20063;-81
2023/05/22 12:12:16;;;;;;;13.50;9.73;;;23.60;67.80;;;;;;4965159;28;20127;-80
2023/05/22 12:14:45;;;;;;;14.57;9.33;;;23.80;67.00;;;;;;4949355;28;20059;-84
2023/05/22 12:17:12;;;;;;;13.98;9.30;;;23.90;66.60;;;;;;4966784;28;20059;-84
2023/05/22 12:19:40;;;;;;;15.98;9.88;;;23.90;66.50;;;;;;4966214;28;20055;-84
2023/05/22 12:22:09;;;;;;;14.45;9.73;;;24.00;66.80;;;;;;4958298;28;20135;-83
2023/05/22 12:24:39;;;;;;;15.05;10.68;;;24.00;66.90;;;;;;4966560;28;20066;-79
2023/05/22 12:27:09;;;;;;;14.63;9.77;;;24.10;67.00;;;;;;4953680;28;20054;-85
2023/05/22 12:29:36;;;;;;;13.98;10.30;;;24.20;66.60;;;;;;4955690;28;20606;-83
2023/05/22 12:32:05;;;;;;;14.90;10.52;;;24.30;65.60;;;;;;4952234;28;20055;-83
2023/05/22 12:34:33;;;;;;;15.50;10.18;;;24.40;65.00;;;;;;4949736;28;20126;-83
2023/05/22 12:37:01;;;;;;;13.63;9.35;;;24.40;64.60;;;;;;4968567;28;20055;-84
2023/05/22 12:39:29;;;;;;;13.60;9.43;;;24.40;65.00;;;;;;4952505;28;20055;-84
2023/05/22 12:41:57;;;;;;;14.95;10.43;;;24.50;65.60;;;;;;4952999;28;20775;-86